Terminal Aerodrome Forecast
Issued by NWS Springfield, MO

Home | Current Version | Previous Version | Text Only | Print | Product List | Glossary On
Versions: 1 2 3 4 5 6 7 8 9 10 11 12 13 14 15 16 17 18 19 20 21 22 23 24 25 26 27 28 29 30 31 32 33 34
583
FTUS43 KSGF 201604 AAC
TAFSGF
TAF AMD
KSGF 201604Z 2016/2112 32014G28KT 6SM -SHRA BKN008 OVC020
     FM202000 34013G23KT 4SM -SHRA BR OVC008
     FM210300 36013G20KT 4SM -FZRA OVC008
     FM211100 01012KT P6SM VCSH BKN040=

USA.gov is the U.S. government's official web portal to all federal, state and local government web resources and services.